Time;durP1;ratioP1;P1;durP2;ratioP2;P2;SDS_P1;SDS_P2;PMS_P1;PMS_P2;Temp;Humidity;BMP_temperature;BMP_pressure;BME280_temperature;BME280_humidity;BME280_pressure;Samples;Min_cycle;Max_cycle;Signal;HPM_P1;HPM_P2
2022/07/30 04:02:42;;;;;;;5.43;5.03;;;15.70;96.30;;;;;;4976130;28;21007;-80
2022/07/30 04:05:08;;;;;;;5.50;5.00;;;15.70;96.30;;;;;;4983819;28;20425;-80
2022/07/30 04:07:34;;;;;;;6.13;5.63;;;15.70;96.30;;;;;;4986139;28;20901;-80
2022/07/30 04:09:59;;;;;;;7.13;6.17;;;15.80;96.30;;;;;;4987431;28;20441;-81
2022/07/30 04:12:27;;;;;;;7.50;6.33;;;15.80;96.30;;;;;;4986499;28;20186;-81
2022/07/30 04:14:53;;;;;;;9.33;6.73;;;15.80;96.30;;;;;;4983511;28;20260;-79
2022/07/30 04:17:26;;;;;;;7.27;6.47;;;15.80;96.30;;;;;;4976993;28;20445;-79
2022/07/30 04:20:00;;;;;;;7.00;5.90;;;15.80;96.30;;;;;;4934225;29;20156;-79
2022/07/30 04:22:33;;;;;;;6.83;6.23;;;15.80;96.30;;;;;;4933470;29;20971;-78
2022/07/30 04:25:00;;;;;;;6.50;5.90;;;15.80;96.30;;;;;;4934888;29;20410;-79
2022/07/30 04:27:27;;;;;;;6.60;6.07;;;15.80;96.30;;;;;;4934918;29;20407;-79
2022/07/30 04:29:54;;;;;;;6.17;5.67;;;15.80;96.30;;;;;;4934565;29;20412;-79
2022/07/30 04:32:19;;;;;;;6.90;6.10;;;15.80;96.30;;;;;;4934825;29;20434;-79
2022/07/30 04:34:55;;;;;;;5.93;5.50;;;15.80;96.30;;;;;;4935365;29;20455;-80
2022/07/30 04:37:25;;;;;;;6.57;6.03;;;15.80;96.30;;;;;;4934819;29;20206;-79
2022/07/30 04:39:53;;;;;;;8.83;8.00;;;15.90;96.30;;;;;;4939649;28;20458;-79
2022/07/30 04:42:20;;;;;;;7.30;6.70;;;15.90;96.30;;;;;;4988651;28;20445;-79
2022/07/30 04:44:45;;;;;;;7.33;6.73;;;15.90;96.30;;;;;;4988011;28;20417;-79
2022/07/30 04:47:11;;;;;;;7.73;7.03;;;15.90;96.30;;;;;;4971741;28;20433;-79
2022/07/30 04:49:37;;;;;;;7.50;6.80;;;15.90;96.30;;;;;;4972479;28;20698;-79
2022/07/30 04:52:06;;;;;;;8.80;8.00;;;15.90;96.30;;;;;;4972027;28;20201;-79
2022/07/30 04:54:41;;;;;;;7.67;6.97;;;15.90;96.30;;;;;;4972808;28;20472;-79
2022/07/30 04:57:10;;;;;;;8.30;6.53;;;15.90;96.30;;;;;;4972982;28;20404;-79
2022/07/30 04:59:36;;;;;;;8.30;7.63;;;15.90;96.30;;;;;;4972343;28;20420;-78
2022/07/30 05:02:02;;;;;;;8.47;7.63;;;15.90;96.30;;;;;;4972462;28;20449;-79
2022/07/30 05:04:30;;;;;;;8.03;7.43;;;15.90;96.30;;;;;;4971239;28;20182;-78
2022/07/30 05:06:56;;;;;;;8.20;7.50;;;15.90;96.30;;;;;;4972780;28;20418;-78
2022/07/30 05:09:22;;;;;;;8.17;7.43;;;15.90;96.30;;;;;;4972031;28;20532;-77
2022/07/30 05:11:52;;;;;;;8.57;7.63;;;16.00;96.30;;;;;;4972226;28;20826;-77
2022/07/30 05:14:19;;;;;;;11.00;8.43;;;16.00;96.30;;;;;;4972445;28;20457;-78
2022/07/30 05:16:44;;;;;;;9.23;8.33;;;16.00;96.30;;;;;;4972581;28;20416;-78
2022/07/30 05:19:10;;;;;;;9.63;8.40;;;16.00;96.30;;;;;;4970654;28;20786;-78
2022/07/30 05:21:35;;;;;;;10.70;8.23;;;16.00;96.30;;;;;;4972306;28;20182;-78
2022/07/30 05:24:01;;;;;;;8.20;7.50;;;16.10;96.30;;;;;;4972572;28;20691;-78
2022/07/30 05:26:26;;;;;;;7.83;7.03;;;16.10;96.30;;;;;;4972457;28;20184;-78
2022/07/30 05:28:52;;;;;;;6.80;5.93;;;16.10;96.30;;;;;;4970876;28;20583;-79
2022/07/30 05:31:17;;;;;;;5.67;5.17;;;16.10;96.30;;;;;;4972918;28;20277;-78
2022/07/30 05:33:43;;;;;;;6.57;5.90;;;16.20;96.30;;;;;;4972448;28;20662;-78
2022/07/30 05:36:08;;;;;;;5.77;5.27;;;16.20;96.30;;;;;;4974751;28;20185;-79
2022/07/30 05:38:34;;;;;;;5.30;4.90;;;16.20;96.30;;;;;;4970112;28;20170;-81
2022/07/30 05:41:00;;;;;;;6.00;5.60;;;16.30;96.30;;;;;;4974848;28;20206;-81
2022/07/30 05:43:25;;;;;;;5.83;5.43;;;16.20;96.30;;;;;;4990334;28;20225;-80
2022/07/30 05:45:51;;;;;;;6.60;5.70;;;16.20;96.30;;;;;;4991011;28;20185;-81
2022/07/30 05:48:17;;;;;;;6.67;6.10;;;16.20;96.30;;;;;;5010564;28;20189;-81
2022/07/30 05:50:42;;;;;;;7.07;6.13;;;16.20;96.30;;;;;;4993053;28;20713;-81
2022/07/30 05:53:08;;;;;;;7.93;7.20;;;16.30;96.30;;;;;;4983567;28;20305;-81
2022/07/30 05:55:33;;;;;;;6.20;5.67;;;16.30;96.30;;;;;;4980935;28;20664;-81
2022/07/30 05:57:59;;;;;;;6.40;5.80;;;16.30;96.30;;;;;;4980067;28;20179;-81
2022/07/30 06:00:24;;;;;;;7.93;7.30;;;16.30;96.30;;;;;;4981650;28;20526;-81
2022/07/30 06:02:50;;;;;;;8.40;7.70;;;16.30;96.30;;;;;;4980645;28;20186;-80
2022/07/30 06:05:15;;;;;;;8.00;7.30;;;16.40;96.30;;;;;;4956239;28;20401;-80
2022/07/30 06:07:41;;;;;;;8.00;7.17;;;16.40;96.30;;;;;;4940570;28;20175;-76
2022/07/30 06:10:06;;;;;;;11.53;7.70;;;16.40;96.30;;;;;;4937054;29;20183;-77
2022/07/30 06:12:32;;;;;;;8.40;7.73;;;16.40;96.30;;;;;;4937214;29;20214;-78
2022/07/30 06:14:58;;;;;;;7.77;7.10;;;16.40;96.30;;;;;;4937617;29;20168;-76
2022/07/30 06:17:23;;;;;;;7.50;6.90;;;16.40;96.30;;;;;;4937595;29;20179;-77
2022/07/30 06:19:50;;;;;;;8.30;6.63;;;16.40;96.30;;;;;;4936908;29;20182;-77
2022/07/30 06:22:16;;;;;;;7.97;7.27;;;16.40;96.30;;;;;;4937323;29;20604;-77
2022/07/30 06:24:41;;;;;;;8.17;7.37;;;16.30;96.30;;;;;;4936025;29;20451;-77
2022/07/30 06:27:07;;;;;;;8.63;7.93;;;16.30;96.30;;;;;;4937673;29;20514;-77
2022/07/30 06:29:33;;;;;;;8.70;8.00;;;16.40;96.30;;;;;;4936691;29;20215;-78
2022/07/30 06:31:58;;;;;;;8.50;7.73;;;16.40;96.30;;;;;;4934953;29;20207;-76
2022/07/30 06:34:24;;;;;;;8.47;7.80;;;16.40;96.30;;;;;;4936246;29;20219;-79
2022/07/30 06:36:50;;;;;;;7.70;7.10;;;16.40;96.30;;;;;;4937777;29;20175;-79
2022/07/30 06:39:15;;;;;;;7.60;7.00;;;16.50;96.30;;;;;;4935987;29;20176;-77
2022/07/30 06:41:41;;;;;;;7.53;6.87;;;16.50;96.30;;;;;;4969353;28;20238;-78
2022/07/30 06:44:06;;;;;;;7.57;6.87;;;16.60;96.30;;;;;;4974836;28;20178;-77
2022/07/30 06:46:32;;;;;;;7.03;6.33;;;16.70;96.30;;;;;;4974657;28;20234;-77
2022/07/30 06:48:57;;;;;;;6.40;5.90;;;16.80;96.30;;;;;;4974864;28;20178;-80
2022/07/30 06:51:23;;;;;;;7.07;6.53;;;16.90;96.30;;;;;;4976177;28;20201;-80
2022/07/30 06:53:48;;;;;;;7.63;6.90;;;16.90;96.30;;;;;;4974860;28;20260;-76
2022/07/30 06:56:14;;;;;;;7.17;6.07;;;17.00;96.30;;;;;;4973734;28;20265;-76
2022/07/30 06:58:39;;;;;;;5.97;5.57;;;17.10;96.30;;;;;;4973161;28;20634;-77
2022/07/30 07:01:05;;;;;;;6.87;5.47;;;17.20;96.30;;;;;;4971785;28;20234;-77
2022/07/30 07:03:31;;;;;;;6.13;5.53;;;17.10;96.30;;;;;;4944015;29;20211;-76
2022/07/30 07:05:56;;;;;;;5.87;5.40;;;17.10;96.30;;;;;;4972761;28;20179;-79
2022/07/30 07:08:22;;;;;;;8.00;7.30;;;17.10;96.30;;;;;;4943506;29;20187;-78
2022/07/30 07:10:48;;;;;;;7.63;6.80;;;17.10;96.30;;;;;;4956054;28;20294;-79
2022/07/30 07:13:14;;;;;;;7.27;6.57;;;17.20;96.30;;;;;;4946786;29;20195;-76
2022/07/30 07:15:40;;;;;;;8.33;6.47;;;17.20;96.30;;;;;;4950423;28;20643;-80
2022/07/30 07:18:05;;;;;;;8.50;6.90;;;17.20;96.30;;;;;;4946614;29;20593;-79
2022/07/30 07:20:32;;;;;;;6.23;5.73;;;17.20;96.30;;;;;;4946978;28;20434;-78
2022/07/30 07:22:58;;;;;;;9.07;6.63;;;17.10;96.30;;;;;;4960318;28;20290;-79
2022/07/30 07:25:23;;;;;;;6.90;6.40;;;17.10;96.30;;;;;;4960631;28;20482;-76
2022/07/30 07:27:49;;;;;;;6.60;5.70;;;17.00;96.30;;;;;;4953502;29;20187;-76
2022/07/30 07:30:14;;;;;;;7.73;7.00;;;17.00;96.30;;;;;;4953568;28;20191;-79
2022/07/30 07:32:40;;;;;;;8.37;7.57;;;16.90;96.30;;;;;;4947748;29;20175;-79
2022/07/30 07:35:07;;;;;;;7.63;6.93;;;16.80;96.30;;;;;;4978290;28;20171;-80
2022/07/30 07:37:32;;;;;;;9.37;8.57;;;16.80;96.30;;;;;;4971739;28;20179;-76
2022/07/30 07:39:58;;;;;;;7.83;7.13;;;16.80;96.30;;;;;;4957390;28;20506;-76
2022/07/30 07:42:24;;;;;;;8.70;7.93;;;16.80;96.30;;;;;;4973735;28;20199;-77
2022/07/30 07:44:49;;;;;;;8.00;7.30;;;16.90;96.30;;;;;;4974091;28;20186;-77
2022/07/30 07:47:14;;;;;;;9.20;8.00;;;16.90;96.30;;;;;;4973964;28;20258;-79
2022/07/30 07:49:40;;;;;;;9.27;8.43;;;17.00;96.30;;;;;;4958507;28;20187;-77
2022/07/30 07:52:06;;;;;;;9.50;8.80;;;17.20;96.30;;;;;;4953163;29;20257;-79
2022/07/30 07:54:31;;;;;;;8.73;8.00;;;17.20;96.30;;;;;;4954452;28;20218;-77
2022/07/30 07:56:57;;;;;;;9.23;8.20;;;17.20;96.30;;;;;;4954241;28;20179;-77
2022/07/30 07:59:23;;;;;;;9.80;8.90;;;17.30;96.30;;;;;;4953459;28;20167;-77
2022/07/30 08:01:49;;;;;;;9.83;8.87;;;17.30;96.30;;;;;;4954137;28;20217;-75
2022/07/30 08:04:14;;;;;;;9.90;9.00;;;17.30;96.30;;;;;;4954187;28;20186;-74
2022/07/30 08:06:40;;;;;;;9.17;8.27;;;17.40;96.30;;;;;;4954287;28;20407;-77
2022/07/30 08:09:05;;;;;;;8.80;8.00;;;17.30;96.30;;;;;;4953630;28;20179;-75
2022/07/30 08:11:31;;;;;;;9.33;8.50;;;17.20;96.30;;;;;;4954152;28;20273;-75
2022/07/30 08:13:56;;;;;;;8.93;8.07;;;17.10;96.30;;;;;;4953674;28;20681;-78
2022/07/30 08:16:22;;;;;;;8.90;8.07;;;17.00;96.30;;;;;;4948632;28;20179;-77
2022/07/30 08:18:47;;;;;;;10.17;9.03;;;16.90;96.30;;;;;;4944291;28;20535;-79
2022/07/30 08:21:14;;;;;;;11.80;8.33;;;16.80;96.30;;;;;;4933400;29;20195;-77
2022/07/30 08:23:40;;;;;;;9.47;8.67;;;16.70;96.30;;;;;;4934782;29;20533;-77
2022/07/30 08:26:05;;;;;;;9.97;8.97;;;16.60;96.30;;;;;;4933798;29;20439;-78
2022/07/30 08:28:31;;;;;;;11.27;10.17;;;16.50;96.30;;;;;;4939653;29;20171;-79
2022/07/30 08:30:56;;;;;;;13.13;10.70;;;16.40;96.30;;;;;;4951452;29;20201;-78
2022/07/30 08:33:22;;;;;;;9.50;8.60;;;16.30;96.30;;;;;;4953175;28;20225;-78
2022/07/30 08:35:48;;;;;;;9.40;8.37;;;16.10;96.30;;;;;;4954049;28;20226;-77
2022/07/30 08:38:13;;;;;;;12.43;8.67;;;16.00;96.30;;;;;;4953259;28;20642;-79
2022/07/30 08:40:39;;;;;;;13.83;8.50;;;15.90;96.30;;;;;;4962018;28;20197;-77
2022/07/30 08:43:06;;;;;;;9.27;8.47;;;15.90;96.30;;;;;;4971718;28;20182;-77
2022/07/30 08:45:33;;;;;;;9.07;7.60;;;15.90;96.30;;;;;;4959600;28;20207;-78
2022/07/30 08:48:00;;;;;;;9.63;8.73;;;15.90;96.30;;;;;;4932674;29;20491;-77
2022/07/30 08:50:27;;;;;;;7.90;7.10;;;15.80;96.30;;;;;;4932933;29;20455;-78
2022/07/30 08:52:54;;;;;;;12.70;7.60;;;15.80;96.30;;;;;;4934317;29;20934;-76
2022/07/30 08:55:21;;;;;;;10.00;7.77;;;15.70;96.30;;;;;;4934471;29;20919;-76
2022/07/30 08:57:48;;;;;;;8.47;7.43;;;15.70;96.30;;;;;;4934444;29;20451;-76
2022/07/30 09:00:15;;;;;;;12.90;7.40;;;15.70;96.30;;;;;;4934098;29;20931;-76
2022/07/30 09:02:41;;;;;;;8.80;7.33;;;15.70;96.30;;;;;;4934274;29;20481;-75
2022/07/30 09:05:07;;;;;;;9.07;8.17;;;15.80;96.30;;;;;;4934460;29;20399;-75
2022/07/30 09:07:34;;;;;;;8.33;7.50;;;15.90;96.30;;;;;;4948762;29;20244;-78
2022/07/30 09:10:00;;;;;;;9.03;7.17;;;15.90;96.30;;;;;;4956364;28;20415;-79
2022/07/30 09:12:33;;;;;;;12.40;7.77;;;16.00;96.30;;;;;;4955115;28;20465;-77
2022/07/30 09:15:08;;;;;;;8.53;7.40;;;16.10;96.30;;;;;;4957174;28;20202;-78
2022/07/30 09:17:56;;;;;;;10.13;7.90;;;16.20;96.30;;;;;;4957099;28;20428;-78
2022/07/30 09:20:29;;;;;;;9.77;7.10;;;16.20;96.30;;;;;;4944344;28;20439;-78
2022/07/30 09:23:00;;;;;;;8.03;7.23;;;16.10;96.30;;;;;;4956791;28;20505;-78
2022/07/30 09:25:34;;;;;;;9.57;6.40;;;16.10;96.30;;;;;;4951153;28;20411;-77
2022/07/30 09:27:59;;;;;;;8.60;7.40;;;16.10;96.30;;;;;;4956243;28;20410;-78
2022/07/30 09:30:25;;;;;;;12.27;6.73;;;16.20;96.30;;;;;;4956911;28;21002;-77
2022/07/30 09:32:55;;;;;;;7.40;6.20;;;16.10;96.30;;;;;;4955403;29;20183;-77
2022/07/30 09:35:23;;;;;;;8.30;5.50;;;16.10;96.30;;;;;;4956731;28;20407;-77
2022/07/30 09:37:58;;;;;;;4.90;4.50;;;16.00;96.30;;;;;;4956205;28;20414;-77
2022/07/30 09:40:24;;;;;;;6.70;5.57;;;16.10;96.30;;;;;;4963038;28;20463;-78
2022/07/30 09:43:08;;;;;;;6.20;5.47;;;16.00;96.30;;;;;;4975853;28;20495;-78
2022/07/30 09:45:34;;;;;;;5.90;5.40;;;16.00;96.30;;;;;;4974607;28;20980;-79
2022/07/30 09:48:01;;;;;;;5.63;5.13;;;16.10;96.30;;;;;;4975413;28;20463;-79
2022/07/30 09:50:27;;;;;;;6.20;4.73;;;16.10;96.30;;;;;;4971115;28;20517;-79
2022/07/30 09:52:53;;;;;;;9.53;4.70;;;16.00;96.30;;;;;;4956739;28;20991;-78
2022/07/30 09:55:35;;;;;;;6.30;5.43;;;16.00;96.30;;;;;;4955395;29;20274;-79
2022/07/30 09:58:04;;;;;;;6.23;5.63;;;16.00;96.30;;;;;;4955862;28;20414;-79
2022/07/30 10:00:35;;;;;;;11.10;5.00;;;15.90;96.30;;;;;;4956217;29;20427;-78
2022/07/30 10:03:12;;;;;;;9.13;5.00;;;15.90;96.30;;;;;;4956239;29;20401;-80
2022/07/30 10:05:47;;;;;;;5.60;5.03;;;15.90;96.30;;;;;;4956492;28;20399;-75
2022/07/30 10:08:13;;;;;;;7.10;5.57;;;15.90;96.30;;;;;;4955735;29;20418;-78
2022/07/30 10:10:39;;;;;;;6.83;5.17;;;15.90;96.30;;;;;;4956332;28;20470;-77
2022/07/30 10:13:07;;;;;;;8.63;6.20;;;15.90;96.30;;;;;;4956009;28;20474;-76
2022/07/30 10:15:35;;;;;;;8.70;5.47;;;15.90;96.30;;;;;;4947383;28;20202;-78
2022/07/30 10:18:04;;;;;;;9.60;6.70;;;15.90;96.30;;;;;;4946592;28;20470;-77
2022/07/30 10:20:30;;;;;;;7.33;5.97;;;15.80;96.30;;;;;;4955495;28;20911;-77
2022/07/30 10:22:56;;;;;;;7.17;5.80;;;15.70;96.30;;;;;;4951617;28;20415;-77
2022/07/30 10:25:24;;;;;;;6.20;4.97;;;15.50;96.30;;;;;;4960075;28;20791;-79
2022/07/30 10:27:51;;;;;;;7.63;5.80;;;15.40;96.30;;;;;;4963129;28;20186;-78
2022/07/30 10:30:17;;;;;;;6.47;5.80;;;15.30;96.30;;;;;;4955217;28;20434;-77
2022/07/30 10:32:44;;;;;;;5.90;5.40;;;15.40;96.30;;;;;;4954252;28;20427;-74
2022/07/30 10:35:11;;;;;;;5.70;4.90;;;15.50;96.30;;;;;;4952814;28;20423;-76
2022/07/30 10:37:43;;;;;;;6.73;4.93;;;15.50;96.30;;;;;;4955579;28;20414;-75
2022/07/30 10:40:16;;;;;;;8.07;5.50;;;15.50;96.30;;;;;;4959277;28;20446;-74
2022/07/30 10:43:10;;;;;;;5.77;5.27;;;15.50;96.30;;;;;;4974729;28;20409;-74
2022/07/30 10:45:52;;;;;;;7.13;5.90;;;15.50;96.30;;;;;;4936464;29;20428;-75
2022/07/30 10:48:19;;;;;;;5.50;4.97;;;15.40;96.30;;;;;;4935685;29;20896;-75
2022/07/30 10:50:55;;;;;;;7.93;6.07;;;15.20;96.30;;;;;;4936097;29;20443;-76
2022/07/30 10:53:35;;;;;;;5.90;5.30;;;15.00;96.30;;;;;;4936035;29;20463;-75
2022/07/30 10:56:15;;;;;;;13.33;5.93;;;15.00;96.30;;;;;;4935832;29;20415;-74
2022/07/30 10:58:59;;;;;;;9.83;6.00;;;15.00;96.30;;;;;;4935533;29;20406;-74
2022/07/30 11:01:45;;;;;;;6.40;5.40;;;15.10;96.30;;;;;;4950305;29;20550;-74
2022/07/30 11:04:19;;;;;;;7.57;6.07;;;15.30;96.30;;;;;;4935739;29;20439;-75
2022/07/30 11:06:45;;;;;;;8.77;5.77;;;15.30;96.30;;;;;;4935870;29;20419;-74
2022/07/30 11:09:37;;;;;;;7.27;6.27;;;15.30;96.30;;;;;;4945806;28;20425;-75
2022/07/30 11:12:04;;;;;;;7.27;6.33;;;15.30;96.30;;;;;;4974177;28;20202;-75
2022/07/30 11:14:44;;;;;;;11.00;6.67;;;15.30;96.30;;;;;;4974143;28;20456;-74
2022/07/30 11:17:14;;;;;;;7.40;5.80;;;15.40;96.30;;;;;;4958302;28;20434;-73
2022/07/30 11:20:05;;;;;;;7.57;6.10;;;15.40;96.30;;;;;;4954494;28;20415;-76
2022/07/30 11:22:43;;;;;;;15.03;6.90;;;15.50;96.30;;;;;;4954762;29;20422;-75
2022/07/30 11:25:31;;;;;;;8.30;7.20;;;15.70;96.30;;;;;;4954802;28;20386;-74
2022/07/30 11:27:59;;;;;;;11.40;6.80;;;15.80;96.30;;;;;;4954444;28;20419;-74
2022/07/30 11:30:27;;;;;;;7.87;7.07;;;15.90;96.30;;;;;;4948342;28;21002;-76
2022/07/30 11:32:54;;;;;;;11.20;6.13;;;16.10;96.30;;;;;;4945509;28;20415;-77
2022/07/30 11:35:24;;;;;;;10.97;6.33;;;16.20;96.30;;;;;;4950619;29;20429;-77
2022/07/30 11:38:06;;;;;;;11.00;7.13;;;16.20;96.30;;;;;;4954197;28;20415;-78
2022/07/30 11:40:41;;;;;;;7.67;6.70;;;16.10;96.30;;;;;;4961618;28;22707;-77
2022/07/30 11:43:27;;;;;;;10.20;7.37;;;16.30;96.30;;;;;;4961147;28;20476;-78
2022/07/30 11:46:14;;;;;;;8.20;6.77;;;16.40;96.30;;;;;;4954561;29;20426;-78
2022/07/30 11:48:53;;;;;;;10.37;6.40;;;16.50;96.30;;;;;;4954120;28;20399;-79
2022/07/30 11:51:19;;;;;;;8.50;6.47;;;16.60;96.30;;;;;;4953406;28;20446;-80
2022/07/30 11:53:58;;;;;;;7.70;6.63;;;16.60;96.30;;;;;;4954359;29;20948;-78
2022/07/30 11:56:23;;;;;;;7.50;6.80;;;16.70;96.30;;;;;;4953284;29;20823;-78
2022/07/30 11:58:49;;;;;;;8.20;6.50;;;16.60;96.30;;;;;;4953276;28;20522;-79
2022/07/30 12:01:16;;;;;;;8.70;6.40;;;16.40;96.30;;;;;;4954300;28;20207;-78
2022/07/30 12:03:43;;;;;;;7.40;6.60;;;16.30;96.30;;;;;;4954058;28;20183;-78
2022/07/30 12:06:18;;;;;;;9.50;6.67;;;16.20;96.30;;;;;;4954188;28;20418;-77
2022/07/30 12:08:49;;;;;;;7.57;6.47;;;16.10;96.30;;;;;;4954960;28;20444;-77
2022/07/30 12:11:14;;;;;;;7.80;7.00;;;16.10;96.30;;;;;;4973366;28;20437;-78
2022/07/30 12:13:44;;;;;;;7.57;6.90;;;16.20;96.30;;;;;;4973295;28;20465;-77
2022/07/30 12:16:12;;;;;;;8.60;7.80;;;16.50;96.30;;;;;;4973193;28;20662;-77
2022/07/30 12:18:38;;;;;;;8.77;7.60;;;16.80;96.30;;;;;;4971500;28;20410;-79
2022/07/30 12:21:10;;;;;;;7.40;6.80;;;16.90;96.30;;;;;;4972651;28;20452;-77
2022/07/30 12:23:37;;;;;;;7.40;6.73;;;17.00;96.30;;;;;;4973574;28;20177;-78
2022/07/30 12:26:03;;;;;;;7.13;5.90;;;17.10;96.30;;;;;;4973455;28;20420;-79
2022/07/30 12:28:34;;;;;;;8.30;7.50;;;17.20;96.30;;;;;;4972696;28;20498;-78
2022/07/30 12:31:03;;;;;;;7.57;6.73;;;17.40;96.30;;;;;;4973347;28;20433;-78
2022/07/30 12:33:29;;;;;;;9.10;7.40;;;17.50;96.30;;;;;;4955514;28;20988;-78
2022/07/30 12:35:59;;;;;;;12.83;6.57;;;17.50;96.30;;;;;;4969161;28;20419;-78
2022/07/30 12:38:26;;;;;;;8.77;6.97;;;17.60;96.30;;;;;;4953104;28;20407;-77
2022/07/30 12:41:00;;;;;;;9.90;5.90;;;17.70;96.30;;;;;;4963710;28;20438;-78
2022/07/30 12:43:49;;;;;;;12.33;6.33;;;17.80;96.30;;;;;;4972624;28;20394;-78
2022/07/30 12:46:18;;;;;;;7.67;6.53;;;17.90;96.30;;;;;;4976692;28;20413;-77
2022/07/30 12:49:01;;;;;;;7.83;7.13;;;17.90;96.30;;;;;;4976247;28;20996;-78
2022/07/30 12:51:31;;;;;;;10.30;6.57;;;18.00;96.30;;;;;;4976558;28;20444;-77
2022/07/30 12:53:58;;;;;;;8.30;6.80;;;18.00;96.30;;;;;;4976696;28;20449;-78
2022/07/30 12:56:30;;;;;;;7.23;6.60;;;18.00;96.30;;;;;;4976483;28;20437;-77
2022/07/30 12:58:58;;;;;;;20.73;6.20;;;18.00;96.30;;;;;;4991269;28;20423;-77
2022/07/30 13:01:43;;;;;;;9.30;7.47;;;18.20;96.30;;;;;;4976791;28;20951;-77
2022/07/30 13:04:09;;;;;;;10.50;5.83;;;18.40;96.30;;;;;;4976446;28;20421;-76
2022/07/30 13:06:35;;;;;;;6.50;5.90;;;18.40;96.30;;;;;;4977373;28;20409;-74
2022/07/30 13:09:01;;;;;;;6.13;5.13;;;18.30;96.30;;;;;;4965680;28;20205;-74
2022/07/30 13:11:40;;;;;;;9.80;5.40;;;18.40;96.30;;;;;;4957529;28;20191;-74
2022/07/30 13:14:06;;;;;;;8.07;5.07;;;18.70;96.30;;;;;;4956041;29;20505;-74
2022/07/30 13:16:33;;;;;;;10.80;4.50;;;19.00;96.30;;;;;;4957369;28;20407;-77
2022/07/30 13:18:59;;;;;;;4.77;4.37;;;18.80;96.30;;;;;;4952543;28;20975;-74
2022/07/30 13:21:25;;;;;;;7.70;4.27;;;18.70;96.30;;;;;;4955713;29;20453;-75
2022/07/30 13:23:51;;;;;;;7.03;3.90;;;18.90;96.30;;;;;;4957488;28;20801;-75
2022/07/30 13:26:16;;;;;;;5.17;4.13;;;18.80;96.30;;;;;;4957418;28;20543;-76
2022/07/30 13:28:42;;;;;;;5.10;4.30;;;18.80;96.30;;;;;;4955616;28;20631;-74
2022/07/30 13:31:08;;;;;;;11.53;4.20;;;18.90;96.30;;;;;;4956307;28;20230;-74
2022/07/30 13:33:37;;;;;;;4.80;3.60;;;18.90;96.30;;;;;;4957293;28;20199;-74
2022/07/30 13:36:03;;;;;;;10.33;4.73;;;18.80;96.30;;;;;;4957020;28;20180;-77
2022/07/30 13:38:28;;;;;;;5.27;4.77;;;18.80;96.30;;;;;;4955757;28;20442;-77
2022/07/30 13:40:54;;;;;;;4.50;4.10;;;18.70;96.30;;;;;;4966015;28;20856;-74
2022/07/30 13:43:22;;;;;;;4.60;4.17;;;18.70;96.30;;;;;;4976266;28;20175;-74
2022/07/30 13:45:49;;;;;;;7.83;4.10;;;19.00;96.30;;;;;;4976294;28;20185;-74
2022/07/30 13:48:15;;;;;;;4.20;3.90;;;19.00;96.30;;;;;;4975725;28;20929;-74
2022/07/30 13:50:41;;;;;;;4.30;3.90;;;19.00;96.30;;;;;;4975600;28;20433;-76
2022/07/30 13:53:07;;;;;;;4.10;3.80;;;18.80;96.30;;;;;;4970754;28;20203;-74
2022/07/30 13:55:34;;;;;;;4.07;3.67;;;18.70;96.30;;;;;;4955700;28;20974;-77
2022/07/30 13:58:00;;;;;;;4.70;4.20;;;18.80;96.30;;;;;;4955910;29;20450;-75
2022/07/30 14:00:31;;;;;;;4.37;4.00;;;18.90;96.30;;;;;;4956815;28;20414;-75
2022/07/30 14:03:00;;;;;;;4.93;4.50;;;19.10;96.30;;;;;;4955395;29;20432;-74
2022/07/30 14:05:26;;;;;;;5.70;4.80;;;19.10;96.30;;;;;;4955317;29;20422;-74
2022/07/30 14:07:52;;;;;;;4.53;4.13;;;19.00;96.30;;;;;;4956100;28;20499;-76
2022/07/30 14:10:20;;;;;;;4.80;4.30;;;19.00;96.30;;;;;;4956545;28;20179;-74
2022/07/30 14:12:46;;;;;;;5.07;4.60;;;18.90;96.30;;;;;;4956524;28;20173;-74
2022/07/30 14:15:12;;;;;;;4.53;4.13;;;18.80;96.30;;;;;;4956428;28;20449;-76
2022/07/30 14:17:37;;;;;;;9.67;5.40;;;18.90;96.30;;;;;;4955141;28;20183;-74
2022/07/30 14:20:03;;;;;;;7.10;4.50;;;18.90;96.30;;;;;;4955891;28;20222;-74
2022/07/30 14:22:29;;;;;;;7.10;4.90;;;18.90;96.30;;;;;;4955937;28;20202;-74
2022/07/30 14:24:54;;;;;;;11.10;4.73;;;18.90;96.30;;;;;;4954858;28;20414;-74
2022/07/30 14:27:20;;;;;;;6.00;5.40;;;18.90;96.30;;;;;;4956104;28;20183;-74
2022/07/30 14:29:46;;;;;;;6.03;5.10;;;19.00;96.30;;;;;;4955601;28;20175;-73
2022/07/30 14:32:11;;;;;;;7.80;5.73;;;19.10;96.30;;;;;;4956220;28;20226;-74
2022/07/30 14:34:37;;;;;;;6.50;5.27;;;19.10;96.30;;;;;;4954641;29;20480;-74
2022/07/30 14:37:02;;;;;;;6.37;5.03;;;19.00;96.30;;;;;;4956072;28;20248;-74
2022/07/30 14:39:28;;;;;;;6.60;4.97;;;19.10;96.30;;;;;;4955571;28;20242;-74
2022/07/30 14:41:55;;;;;;;6.27;5.37;;;19.10;96.30;;;;;;4974298;28;20257;-74
2022/07/30 14:44:20;;;;;;;8.40;5.80;;;19.20;96.30;;;;;;4975236;28;20454;-74
2022/07/30 14:46:46;;;;;;;10.17;5.70;;;19.20;96.30;;;;;;4975239;28;20445;-74
2022/07/30 14:49:11;;;;;;;7.80;5.60;;;19.40;96.30;;;;;;4974760;28;20625;-74
2022/07/30 14:51:37;;;;;;;6.63;5.73;;;19.40;96.30;;;;;;4975097;28;20198;-75
2022/07/30 14:54:02;;;;;;;8.80;5.53;;;19.40;96.30;;;;;;4975356;28;20256;-74
2022/07/30 14:56:28;;;;;;;12.87;6.10;;;19.40;96.30;;;;;;4974659;28;20542;-74
2022/07/30 14:58:53;;;;;;;7.00;5.20;;;19.60;96.30;;;;;;4973440;28;20208;-75
2022/07/30 15:01:20;;;;;;;7.27;5.90;;;19.80;96.30;;;;;;4963348;28;20222;-74
2022/07/30 15:03:45;;;;;;;5.87;5.30;;;19.90;96.30;;;;;;4974808;28;20233;-74
2022/07/30 15:06:13;;;;;;;10.20;5.37;;;20.00;96.30;;;;;;4974853;28;20884;-73
2022/07/30 15:08:39;;;;;;;7.50;5.73;;;20.30;96.30;;;;;;4972549;28;20654;-73
2022/07/30 15:11:04;;;;;;;10.77;5.80;;;20.30;96.30;;;;;;4974457;28;20454;-73
2022/07/30 15:13:30;;;;;;;7.70;6.10;;;20.30;96.30;;;;;;4972193;28;20206;-77
2022/07/30 15:15:55;;;;;;;11.53;5.90;;;20.40;96.30;;;;;;4955247;28;20167;-73
2022/07/30 15:18:21;;;;;;;8.17;5.20;;;20.50;96.30;;;;;;4954765;29;20619;-75
2022/07/30 15:20:46;;;;;;;9.20;5.80;;;20.40;96.30;;;;;;4955198;28;20203;-76
2022/07/30 15:23:13;;;;;;;6.13;5.33;;;20.30;96.30;;;;;;4955466;28;20187;-76
2022/07/30 15:25:38;;;;;;;5.97;5.23;;;20.40;96.30;;;;;;4954923;29;20175;-77
2022/07/30 15:28:04;;;;;;;12.50;5.47;;;20.50;96.30;;;;;;4952888;28;20477;-78
2022/07/30 15:30:29;;;;;;;8.47;6.60;;;20.50;96.30;;;;;;4954362;28;20189;-78
2022/07/30 15:32:55;;;;;;;10.87;5.80;;;20.60;96.30;;;;;;4954409;28;20183;-78
2022/07/30 15:35:21;;;;;;;9.37;5.67;;;20.60;96.30;;;;;;4954545;29;20655;-77
2022/07/30 15:37:47;;;;;;;6.97;5.93;;;20.60;96.30;;;;;;4954422;28;20219;-78
2022/07/30 15:40:13;;;;;;;11.97;5.57;;;20.60;96.30;;;;;;4959000;28;20426;-78
2022/07/30 15:42:39;;;;;;;8.60;5.90;;;20.60;96.30;;;;;;4973756;28;20237;-77
2022/07/30 15:45:07;;;;;;;12.43;6.10;;;20.40;96.30;;;;;;4973776;28;20178;-77
2022/07/30 15:47:32;;;;;;;7.30;5.43;;;20.20;96.30;;;;;;4973531;28;20781;-78
2022/07/30 15:49:58;;;;;;;9.97;6.00;;;20.30;96.30;;;;;;4973040;28;20416;-78
2022/07/30 15:52:24;;;;;;;10.50;6.30;;;20.20;96.30;;;;;;4973803;28;20198;-76
2022/07/30 15:54:49;;;;;;;8.57;6.07;;;20.00;96.30;;;;;;4973332;28;20201;-77
2022/07/30 15:57:15;;;;;;;6.20;5.70;;;19.80;96.30;;;;;;4972923;28;20201;-77
2022/07/30 15:59:40;;;;;;;11.13;6.37;;;19.70;96.30;;;;;;4972765;28;20205;-78
2022/07/30 16:02:06;;;;;;;8.07;5.43;;;19.80;96.30;;;;;;4973112;28;20596;-76
2022/07/30 16:04:31;;;;;;;6.80;6.20;;;19.90;96.30;;;;;;4972907;28;20174;-79
2022/07/30 16:06:58;;;;;;;7.20;6.13;;;19.90;96.30;;;;;;4973807;28;20556;-76
2022/07/30 16:09:24;;;;;;;9.60;6.10;;;19.90;96.30;;;;;;4972348;28;20208;-77
2022/07/30 16:11:49;;;;;;;392.20;326.90;;;19.70;96.30;;;;;;4970072;28;20497;-77
2022/07/30 16:14:15;;;;;;;87.83;79.27;;;19.70;96.30;;;;;;4950769;28;20211;-77
2022/07/30 16:16:41;;;;;;;9.27;7.17;;;19.70;96.30;;;;;;4955309;28;20187;-77
2022/07/30 16:19:07;;;;;;;7.57;4.97;;;19.80;96.30;;;;;;4954556;28;20640;-76
2022/07/30 16:21:33;;;;;;;10.60;6.03;;;19.90;96.30;;;;;;4973048;28;20516;-74
2022/07/30 16:23:58;;;;;;;6.60;4.90;;;19.80;96.30;;;;;;4972825;28;20186;-76
2022/07/30 16:26:24;;;;;;;9.03;5.10;;;19.80;96.30;;;;;;4972982;28;20417;-77
2022/07/30 16:28:50;;;;;;;12.80;6.73;;;19.80;96.30;;;;;;4972278;28;20378;-76
2022/07/30 16:31:15;;;;;;;4.60;4.07;;;19.90;96.30;;;;;;4973039;28;20685;-77
2022/07/30 16:33:41;;;;;;;10.73;5.87;;;19.90;96.30;;;;;;4972419;28;20285;-75
2022/07/30 16:36:07;;;;;;;6.83;4.20;;;19.90;96.30;;;;;;4972553;28;20749;-76
2022/07/30 16:38:32;;;;;;;6.53;4.80;;;19.70;96.30;;;;;;4972363;28;20174;-75
2022/07/30 16:40:58;;;;;;;6.10;5.27;;;19.50;96.30;;;;;;4972361;28;20440;-77
2022/07/30 16:43:23;;;;;;;17.03;7.83;;;19.30;96.30;;;;;;4972485;28;20174;-76
2022/07/30 16:45:49;;;;;;;6.20;4.67;;;19.10;96.30;;;;;;4972928;28;20236;-76
2022/07/30 16:48:15;;;;;;;6.30;3.90;;;19.00;96.30;;;;;;4972136;28;20255;-76
2022/07/30 16:50:41;;;;;;;51.33;43.53;;;18.70;96.30;;;;;;4971340;28;20210;-76